Thomas, New Mexico
Current Conditions -  °F | °C
As of 8:55 AM on Thursday 23 Oct 2014 (Local Time) from KCAO Reporting Station
Clear Clear  
Wind Chill: 66°   Ceiling: Unl
Heat Index: 66°   Visibility: 10mi
Dew Point: 38°   Wind: 13mph
Humidity: 36%   Direction: 320°NW
Pressure: 30.17"   Gusts: NA
Location:  36.2639°N, 103.376°W
Report Text: KCAO 231455Z AUTO 32011KT 10SM CLR 19/03 A3017 RMK AO2 SLP169 T01890033 53014
Loading
Personal Weather Stations






























Interactive Weather Map
Tropical Storm Tracking
New forecast layout! Learn more

10-Day Weather Forecast

Advertisements
Track Severe Weather on mobile